Time;durP1;ratioP1;P1;durP2;ratioP2;P2;SDS_P1;SDS_P2;PMS_P1;PMS_P2;Temp;Humidity;BMP_temperature;BMP_pressure;BME280_temperature;BME280_humidity;BME280_pressure;Samples;Min_cycle;Max_cycle;Signal;HPM_P1;HPM_P2
2021/11/12 00:12:36;;;;;;;57.27;36.57;;;;;;;;;;5058060;28;20055;-81
2021/11/12 00:15:04;;;;;;;62.28;37.83;;;;;;;;;;5058319;28;20084;-82
2021/11/12 00:17:34;;;;;;;53.53;35.75;;;;;;;;;;5058323;28;20044;-82
2021/11/12 00:20:00;;;;;;;56.47;37.92;;;;;;;;;;5040586;28;20048;-81
2021/11/12 00:22:27;;;;;;;61.10;37.97;;;;;;;;;;5057593;28;20048;-82
2021/11/12 00:24:55;;;;;;;61.35;37.75;;;;;;;;;;5058164;28;20099;-81
2021/11/12 00:27:25;;;;;;;58.17;37.20;;;;;;;;;;5057707;28;20124;-81
2021/11/12 00:30:09;;;;;;;57.17;37.08;;;;;;;;;;5041020;28;20052;-81
2021/11/12 00:43:27;;;;;;;57.72;37.22;;;;;;;;;;5023318;28;20106;-82
2021/11/12 00:46:41;;;;;;;57.30;36.38;;;;;;;;;;5056537;28;20512;-82
2021/11/12 00:48:48;;;;;;;54.42;36.55;;;;;;;;;;5046162;28;20052;-81
2021/11/12 00:51:22;;;;;;;59.50;37.15;;;;;;;;;;5057074;28;20059;-84
2021/11/12 00:56:18;;;;;;;58.03;37.35;;;;;;;;;;5056966;28;20098;-83
2021/11/12 00:58:44;;;;;;;58.83;38.17;;;;;;;;;;5040326;28;20056;-81
2021/11/12 01:01:12;;;;;;;53.25;36.05;;;;;;;;;;5057499;28;20110;-81
2021/11/12 01:03:38;;;;;;;57.67;37.88;;;;;;;;;;5056754;28;20045;-82
2021/11/12 01:06:04;;;;;;;54.38;37.97;;;;;;;;;;5040020;28;20040;-81
2021/11/12 01:08:30;;;;;;;57.38;37.38;;;;;;;;;;5056172;28;20508;-82
2021/11/12 01:10:57;;;;;;;54.53;36.67;;;;;;;;;;5056611;28;20084;-82
2021/11/12 01:13:25;;;;;;;54.30;37.03;;;;;;;;;;5056664;28;20101;-81
2021/11/12 01:15:52;;;;;;;55.22;37.13;;;;;;;;;;5056355;28;20049;-81
2021/11/12 01:18:18;;;;;;;56.88;37.58;;;;;;;;;;5056515;28;20045;-82
2021/11/12 01:20:45;;;;;;;56.97;37.58;;;;;;;;;;5057121;28;20103;-82
2021/11/12 01:23:11;;;;;;;59.08;38.20;;;;;;;;;;5057045;28;20059;-82
2021/11/12 01:25:37;;;;;;;56.42;38.17;;;;;;;;;;5039697;28;20067;-83
2021/11/12 01:28:04;;;;;;;55.47;38.10;;;;;;;;;;5056308;28;20044;-81
2021/11/12 01:30:31;;;;;;;60.17;38.63;;;;;;;;;;5073293;28;20072;-82
2021/11/12 01:32:57;;;;;;;54.35;37.88;;;;;;;;;;5039519;28;20376;-81
2021/11/12 01:35:24;;;;;;;54.88;37.00;;;;;;;;;;5056864;28;20040;-81
2021/11/12 01:37:51;;;;;;;54.83;36.58;;;;;;;;;;5039390;28;20469;-81
2021/11/12 01:40:23;;;;;;;51.83;36.72;;;;;;;;;;5056034;28;20091;-81
2021/11/12 01:43:09;;;;;;;57.67;38.72;;;;;;;;;;5073499;28;20408;-82
2021/11/12 01:54:07;;;;;;;55.67;38.15;;;;;;;;;;5056650;28;20059;-84
2021/11/12 01:56:43;;;;;;;60.15;37.78;;;;;;;;;;5039804;28;20461;-81
2021/11/12 01:59:13;;;;;;;55.55;37.95;;;;;;;;;;5039678;28;20052;-81
2021/11/12 02:01:46;;;;;;;52.60;36.88;;;;;;;;;;5054829;28;20056;-81
2021/11/12 02:04:13;;;;;;;58.03;38.35;;;;;;;;;;5055830;28;20045;-81
2021/11/12 02:06:40;;;;;;;57.70;37.35;;;;;;;;;;5039393;28;20051;-81
2021/11/12 02:09:16;;;;;;;58.88;38.97;;;;;;;;;;5055649;28;20132;-81
2021/11/12 02:11:44;;;;;;;55.70;37.60;;;;;;;;;;5039807;28;20071;-82
2021/11/12 02:14:11;;;;;;;53.50;36.80;;;;;;;;;;5056168;28;20386;-82
2021/11/12 02:16:42;;;;;;;52.30;36.95;;;;;;;;;;5056088;28;20055;-83
2021/11/12 02:19:09;;;;;;;57.42;38.67;;;;;;;;;;5038908;28;20123;-81
2021/11/12 02:24:12;;;;;;;52.38;36.38;;;;;;;;;;5055956;28;20051;-81
2021/11/12 02:26:46;;;;;;;55.20;37.55;;;;;;;;;;5038815;28;20045;-81
2021/11/12 02:29:14;;;;;;;38.63;27.52;;;;;;;;;;5039049;28;20080;-82
2021/11/12 02:31:40;;;;;;;58.10;38.80;;;;;;;;;;5038484;28;20139;-81
2021/11/12 02:34:09;;;;;;;51.67;36.35;;;;;;;;;;5038371;28;20074;-81
2021/11/12 02:36:36;;;;;;;53.00;38.10;;;;;;;;;;5039189;28;20095;-81
2021/11/12 02:39:04;;;;;;;53.03;36.65;;;;;;;;;;5055135;28;20047;-81
2021/11/12 02:41:30;;;;;;;48.33;35.38;;;;;;;;;;5055068;28;20489;-81
2021/11/12 02:43:56;;;;;;;49.72;34.90;;;;;;;;;;5038586;28;20049;-82
2021/11/12 02:46:25;;;;;;;49.67;36.40;;;;;;;;;;5038305;28;20044;-81
2021/11/12 02:48:51;;;;;;;56.92;37.65;;;;;;;;;;5038456;28;20053;-82
2021/11/12 02:51:22;;;;;;;51.78;37.00;;;;;;;;;;5055262;28;20147;-81
2021/11/12 02:53:49;;;;;;;53.17;37.78;;;;;;;;;;5055226;28;20048;-84
2021/11/12 02:56:32;;;;;;;48.17;35.78;;;;;;;;;;5054518;28;20044;-82
2021/11/12 02:59:05;;;;;;;51.42;36.42;;;;;;;;;;5055694;28;20060;-81
2021/11/12 03:01:33;;;;;;;52.03;37.67;;;;;;;;;;5055316;28;20369;-82
2021/11/12 03:03:59;;;;;;;54.67;37.42;;;;;;;;;;5038319;28;20064;-81
2021/11/12 03:06:26;;;;;;;53.53;36.40;;;;;;;;;;5054847;28;20086;-81
2021/11/12 03:08:53;;;;;;;53.22;36.35;;;;;;;;;;5054795;28;20063;-81
2021/11/12 03:11:19;;;;;;;52.28;36.30;;;;;;;;;;5054386;28;20048;-81
2021/11/12 03:13:46;;;;;;;53.83;36.47;;;;;;;;;;5057158;28;20060;-81
2021/11/12 03:16:13;;;;;;;51.17;37.22;;;;;;;;;;5058567;28;20036;-82
2021/11/12 03:18:40;;;;;;;50.88;36.15;;;;;;;;;;5042880;28;20048;-82
2021/11/12 03:21:08;;;;;;;48.25;35.47;;;;;;;;;;5058422;28;20489;-81
2021/11/12 03:23:43;;;;;;;50.67;36.25;;;;;;;;;;5041854;28;20040;-82
2021/11/12 04:02:06;;;;;;;50.75;34.90;;;;;;;;;;5058429;28;20057;-81
2021/11/12 04:04:40;;;;;;;53.78;36.10;;;;;;;;;;5041727;28;20389;-80
2021/11/12 04:20:26;;;;;;;44.85;33.58;;;;;;;;;;5057499;28;20607;-82
2021/11/12 05:44:10;;;;;;;48.83;32.27;;;;;;;;;;5042891;28;20417;-82
2021/11/12 05:52:15;;;;;;;47.38;32.83;;;;;;;;;;5036089;28;19928;-84
2021/11/12 05:57:25;;;;;;;47.90;33.77;;;;;;;;;;5036349;28;20132;-80
2021/11/12 05:59:52;;;;;;;51.35;34.90;;;;;;;;;;5035736;28;20291;-81
2021/11/12 06:02:18;;;;;;;50.55;34.35;;;;;;;;;;5053945;28;20053;-80
2021/11/12 06:04:45;;;;;;;47.20;34.25;;;;;;;;;;5035459;28;20055;-81
2021/11/12 06:07:11;;;;;;;52.63;35.08;;;;;;;;;;5035569;28;20060;-81
2021/11/12 06:09:37;;;;;;;51.17;35.13;;;;;;;;;;5053935;28;20077;-82
2021/11/12 06:12:04;;;;;;;52.60;35.13;;;;;;;;;;5039729;28;20449;-82
2021/11/12 06:14:30;;;;;;;49.13;34.25;;;;;;;;;;5039660;28;20048;-82
2021/11/12 06:16:56;;;;;;;50.13;35.65;;;;;;;;;;5056061;28;20044;-83
2021/11/12 06:19:24;;;;;;;51.20;34.40;;;;;;;;;;5055498;28;20048;-82
2021/11/12 06:21:51;;;;;;;52.50;35.72;;;;;;;;;;5039332;28;20053;-82
2021/11/12 06:24:17;;;;;;;50.85;35.05;;;;;;;;;;5055339;28;20434;-82
2021/11/12 06:26:43;;;;;;;52.33;34.53;;;;;;;;;;5038918;28;20083;-82
2021/11/12 06:29:09;;;;;;;52.58;35.00;;;;;;;;;;5055329;28;20044;-82
2021/11/12 06:31:35;;;;;;;49.50;34.90;;;;;;;;;;5055451;28;20049;-82
2021/11/12 06:34:02;;;;;;;54.08;34.75;;;;;;;;;;5038606;28;20052;-82
2021/11/12 06:36:28;;;;;;;51.97;35.33;;;;;;;;;;5055135;28;20481;-81
2021/11/12 06:38:55;;;;;;;49.55;34.85;;;;;;;;;;5055277;28;20049;-81
2021/11/12 06:49:49;;;;;;;50.70;35.20;;;;;;;;;;5058934;28;20056;-81
2021/11/12 06:52:16;;;;;;;53.03;36.28;;;;;;;;;;5059971;28;20056;-80
2021/11/12 06:54:44;;;;;;;52.38;36.83;;;;;;;;;;5059203;28;20055;-80
2021/11/12 06:57:10;;;;;;;52.65;36.67;;;;;;;;;;5058861;28;20051;-81
2021/11/12 06:59:36;;;;;;;54.42;36.13;;;;;;;;;;5059031;28;20489;-80
2021/11/12 07:02:02;;;;;;;50.13;35.53;;;;;;;;;;5042679;28;20526;-80
2021/11/12 07:04:28;;;;;;;49.15;35.85;;;;;;;;;;5042100;28;20059;-80
2021/11/12 07:06:54;;;;;;;51.88;37.00;;;;;;;;;;5059179;28;20052;-82
2021/11/12 07:09:21;;;;;;;54.30;37.50;;;;;;;;;;5059034;28;20134;-82
2021/11/12 07:11:47;;;;;;;52.30;35.78;;;;;;;;;;5042878;28;20473;-80
2021/11/12 07:14:13;;;;;;;54.55;37.78;;;;;;;;;;5042422;28;20392;-80
2021/11/12 07:16:39;;;;;;;51.33;36.08;;;;;;;;;;5058764;28;20051;-81
2021/11/12 07:19:05;;;;;;;50.85;35.80;;;;;;;;;;5058699;28;20051;-81
2021/11/12 07:21:31;;;;;;;48.90;34.53;;;;;;;;;;5058488;28;20475;-80
2021/11/12 07:23:57;;;;;;;52.47;36.55;;;;;;;;;;5041987;28;20044;-82
2021/11/12 07:26:24;;;;;;;53.50;36.47;;;;;;;;;;5042747;28;20071;-81
2021/11/12 07:28:51;;;;;;;51.20;36.42;;;;;;;;;;5059361;28;20044;-80
2021/11/12 07:31:18;;;;;;;51.47;36.40;;;;;;;;;;5058569;28;20050;-81
2021/11/12 07:33:46;;;;;;;48.08;34.97;;;;;;;;;;5041884;28;20127;-81
2021/11/12 07:46:37;;;;;;;49.93;33.30;;;;;;;;;;5058549;28;20103;-80
2021/11/12 07:49:05;;;;;;;50.42;34.90;;;;;;;;;;5041767;28;20055;-80
2021/11/12 07:51:32;;;;;;;49.75;34.15;;;;;;;;;;5041840;28;20052;-80
2021/11/12 07:53:58;;;;;;;47.65;33.38;;;;;;;;;;5058218;28;20095;-81
2021/11/12 07:56:25;;;;;;;50.10;34.08;;;;;;;;;;5041590;28;20063;-82
2021/11/12 07:58:51;;;;;;;47.78;33.67;;;;;;;;;;5057616;28;20052;-80
2021/11/12 08:01:17;;;;;;;43.50;31.10;;;;;;;;;;5058061;28;20041;-80
2021/11/12 08:03:45;;;;;;;40.17;30.58;;;;;;;;;;5058034;28;20044;-81
2021/11/12 08:06:15;;;;;;;43.20;31.08;;;;;;;;;;5041775;28;20474;-81
2021/11/12 08:08:46;;;;;;;42.38;30.42;;;;;;;;;;5041260;28;20496;-81
2021/11/12 08:11:19;;;;;;;40.38;29.55;;;;;;;;;;5041469;28;20055;-81
2021/11/12 08:13:50;;;;;;;39.28;28.70;;;;;;;;;;5057851;28;20059;-80
2021/11/12 08:19:02;;;;;;;34.58;26.88;;;;;;;;;;5057698;28;20101;-81
2021/11/12 08:33:57;;;;;;;33.70;25.95;;;;;;;;;;5058158;28;20053;-81
2021/11/12 08:36:47;;;;;;;32.13;24.77;;;;;;;;;;5041282;28;20049;-80
2021/11/12 08:41:58;;;;;;;32.33;24.20;;;;;;;;;;5057245;28;20056;-81
2021/11/12 08:44:35;;;;;;;32.85;24.73;;;;;;;;;;5056496;28;20174;-81
2021/11/12 08:47:14;;;;;;;31.55;23.23;;;;;;;;;;5057273;28;20059;-83
2021/11/12 08:49:41;;;;;;;33.30;24.10;;;;;;;;;;5057805;28;20391;-80
2021/11/12 08:52:08;;;;;;;30.73;23.25;;;;;;;;;;5057472;28;20128;-81
2021/11/12 08:54:36;;;;;;;30.73;22.92;;;;;;;;;;5057821;28;20052;-80
2021/11/12 08:57:07;;;;;;;29.08;22.65;;;;;;;;;;5074565;28;20059;-83
2021/11/12 08:59:34;;;;;;;30.20;23.10;;;;;;;;;;5057729;28;20099;-80
2021/11/12 09:02:01;;;;;;;29.48;22.50;;;;;;;;;;5056740;28;20045;-80
2021/11/12 09:04:27;;;;;;;34.50;23.27;;;;;;;;;;5056640;28;20102;-81
2021/11/12 09:06:53;;;;;;;29.33;22.13;;;;;;;;;;5056825;28;20060;-81
2021/11/12 09:09:20;;;;;;;30.40;22.35;;;;;;;;;;5074921;28;20044;-81
2021/11/12 09:11:47;;;;;;;25.98;20.50;;;;;;;;;;5039503;28;20114;-82
2021/11/12 09:14:18;;;;;;;26.33;20.70;;;;;;;;;;5074257;28;20057;-82
2021/11/12 09:16:45;;;;;;;28.92;21.38;;;;;;;;;;5056892;28;20041;-81
2021/11/12 09:19:15;;;;;;;27.48;20.27;;;;;;;;;;5056151;28;20063;-83
2021/11/12 09:21:45;;;;;;;26.65;20.60;;;;;;;;;;5039658;28;20488;-82
2021/11/12 09:24:11;;;;;;;28.10;20.75;;;;;;;;;;5056220;28;20048;-82
2021/11/12 09:26:37;;;;;;;26.27;20.35;;;;;;;;;;5056718;28;20052;-83
2021/11/12 09:29:05;;;;;;;25.55;19.95;;;;;;;;;;5056624;28;20052;-86
2021/11/12 09:31:31;;;;;;;25.65;20.08;;;;;;;;;;5056302;28;20049;-82
2021/11/12 09:33:57;;;;;;;26.02;20.15;;;;;;;;;;5074363;28;20048;-83
2021/11/12 09:36:24;;;;;;;26.05;19.90;;;;;;;;;;5039227;28;20115;-82
2021/11/12 09:38:50;;;;;;;23.70;18.58;;;;;;;;;;5056249;28;20048;-82
2021/11/12 09:41:16;;;;;;;25.23;18.63;;;;;;;;;;5055976;28;20047;-82
2021/11/12 09:43:43;;;;;;;24.52;19.33;;;;;;;;;;5055802;28;20056;-81
2021/11/12 09:46:13;;;;;;;24.42;18.45;;;;;;;;;;5055963;28;20114;-83
2021/11/12 09:48:40;;;;;;;22.92;17.58;;;;;;;;;;5055766;28;20063;-82
2021/11/12 09:51:06;;;;;;;22.52;18.20;;;;;;;;;;5039312;28;20049;-81
2021/11/12 09:53:32;;;;;;;25.10;17.35;;;;;;;;;;5056523;28;20049;-82
2021/11/12 09:55:58;;;;;;;22.10;16.65;;;;;;;;;;5056510;28;20044;-81
2021/11/12 09:58:24;;;;;;;22.38;17.48;;;;;;;;;;5056363;28;20043;-82
2021/11/12 10:00:57;;;;;;;22.38;17.25;;;;;;;;;;5039225;28;20040;-82
2021/11/12 10:03:23;;;;;;;22.95;16.67;;;;;;;;;;5055913;28;20048;-82
2021/11/12 10:05:50;;;;;;;21.98;16.42;;;;;;;;;;5055935;28;20103;-82
2021/11/12 10:08:34;;;;;;;21.25;16.25;;;;;;;;;;5038979;28;20044;-81
2021/11/12 10:11:11;;;;;;;21.77;15.93;;;;;;;;;;5055820;28;20052;-82
2021/11/12 10:13:39;;;;;;;21.83;15.90;;;;;;;;;;5073187;28;20048;-85
2021/11/12 10:19:05;;;;;;;20.75;15.43;;;;;;;;;;5055316;28;20056;-85
2021/11/12 10:21:33;;;;;;;16.52;11.65;;;;;;;;;;5038787;28;20049;-82
2021/11/12 10:24:15;;;;;;;19.67;15.07;;;;;;;;;;5054557;28;20044;-82
2021/11/12 10:26:41;;;;;;;21.40;14.93;;;;;;;;;;5073126;28;20123;-82
2021/11/12 10:29:13;;;;;;;19.88;15.20;;;;;;;;;;5038866;28;20067;-84
2021/11/12 10:31:47;;;;;;;19.35;15.52;;;;;;;;;;5038721;28;20056;-81
2021/11/12 10:34:15;;;;;;;18.25;14.50;;;;;;;;;;5055039;28;20506;-82
2021/11/12 10:36:51;;;;;;;19.10;15.02;;;;;;;;;;5056016;28;20094;-84
2021/11/12 10:39:25;;;;;;;20.67;15.65;;;;;;;;;;5054908;28;20044;-82
2021/11/12 10:41:51;;;;;;;20.83;16.05;;;;;;;;;;5055991;28;20409;-82
2021/11/12 10:44:17;;;;;;;21.92;17.20;;;;;;;;;;5055390;28;20098;-82
2021/11/12 10:46:43;;;;;;;23.10;16.67;;;;;;;;;;5055385;28;20056;-82
2021/11/12 10:49:29;;;;;;;22.33;16.95;;;;;;;;;;5054916;28;20487;-81
2021/11/12 10:52:04;;;;;;;26.67;18.77;;;;;;;;;;5038645;28;20497;-83
2021/11/12 10:54:39;;;;;;;25.00;17.83;;;;;;;;;;5055265;28;20474;-82
2021/11/12 10:57:05;;;;;;;;;;;;;;;;;;5056107;28;20107;-85
2021/11/12 10:59:31;;;;;;;28.10;19.20;;;;;;;;;;5038922;28;19928;-85
2021/11/12 11:01:57;;;;;;;23.63;17.35;;;;;;;;;;5038644;28;20135;-85
2021/11/12 11:04:24;;;;;;;25.58;18.25;;;;;;;;;;5054852;28;20044;-85
2021/11/12 11:06:53;;;;;;;27.55;18.83;;;;;;;;;;5054626;28;20485;-84
2021/11/12 11:09:20;;;;;;;27.88;19.02;;;;;;;;;;5055635;28;20048;-85
2021/11/12 11:11:47;;;;;;;26.77;18.83;;;;;;;;;;5038992;28;20056;-86
2021/11/12 11:14:27;;;;;;;23.92;18.40;;;;;;;;;;5038263;28;20439;-85
2021/11/12 11:16:54;;;;;;;26.13;18.73;;;;;;;;;;5054604;28;20041;-85
2021/11/12 11:19:36;;;;;;;26.63;19.25;;;;;;;;;;5054460;28;20082;-85
2021/11/12 11:22:03;;;;;;;23.35;18.42;;;;;;;;;;5051766;28;20443;-85
2021/11/12 11:24:33;;;;;;;26.73;18.98;;;;;;;;;;5038814;28;20048;-84
2021/11/12 11:27:01;;;;;;;27.95;18.73;;;;;;;;;;5054550;28;20090;-85
2021/11/12 11:29:27;;;;;;;27.60;19.63;;;;;;;;;;5054691;28;20114;-84
2021/11/12 11:31:54;;;;;;;25.63;19.48;;;;;;;;;;5072513;28;20135;-85
2021/11/12 11:34:22;;;;;;;26.77;19.52;;;;;;;;;;5055704;28;20044;-84
2021/11/12 11:36:50;;;;;;;28.52;20.00;;;;;;;;;;5041581;28;20081;-84
2021/11/12 11:39:18;;;;;;;27.55;20.48;;;;;;;;;;5058492;28;20358;-84
2021/11/12 11:41:45;;;;;;;27.17;19.95;;;;;;;;;;5058365;28;20068;-84
2021/11/12 11:44:17;;;;;;;26.90;20.38;;;;;;;;;;5041317;28;20056;-84
2021/11/12 11:46:46;;;;;;;27.92;21.00;;;;;;;;;;5041697;28;20532;-85
2021/11/12 11:49:13;;;;;;;25.85;19.85;;;;;;;;;;5041754;28;20088;-83
2021/11/12 11:51:47;;;;;;;28.60;21.48;;;;;;;;;;5058228;28;20076;-84
2021/11/12 11:54:13;;;;;;;28.65;20.83;;;;;;;;;;5057611;28;20052;-83
2021/11/12 11:56:53;;;;;;;29.25;20.98;;;;;;;;;;5057859;28;20045;-82
2021/11/12 11:59:20;;;;;;;30.38;21.55;;;;;;;;;;5057715;28;20051;-83
2021/11/12 12:01:46;;;;;;;27.40;20.05;;;;;;;;;;5041551;28;20405;-83
2021/11/12 12:04:16;;;;;;;28.00;21.40;;;;;;;;;;5041540;28;20084;-83
2021/11/12 12:06:43;;;;;;;26.73;21.00;;;;;;;;;;5058061;28;20095;-83
2021/11/12 12:09:14;;;;;;;26.70;20.55;;;;;;;;;;5057766;28;20052;-86
2021/11/12 12:11:40;;;;;;;28.05;22.00;;;;;;;;;;5058163;28;20084;-85
2021/11/12 12:14:16;;;;;;;30.08;22.05;;;;;;;;;;5041055;28;20139;-81
2021/11/12 12:16:42;;;;;;;31.35;22.65;;;;;;;;;;5040848;28;20106;-81
2021/11/12 12:19:27;;;;;;;29.73;21.17;;;;;;;;;;5057878;28;20044;-80
2021/11/12 12:22:10;;;;;;;31.17;21.40;;;;;;;;;;5057557;28;20370;-81
2021/11/12 12:31:00;;;;;;;31.20;22.63;;;;;;;;;;5013445;28;20060;-81
2021/11/12 13:21:55;;;;;;;34.42;24.30;;;;;;;;;;5056807;28;20044;-81
2021/11/12 13:24:33;;;;;;;33.88;23.45;;;;;;;;;;5040209;28;20063;-80
2021/11/12 13:27:04;;;;;;;35.13;24.80;;;;;;;;;;5056563;28;20048;-81
2021/11/12 13:29:30;;;;;;;35.35;25.75;;;;;;;;;;5056200;28;20049;-81
2021/11/12 13:32:01;;;;;;;33.05;24.70;;;;;;;;;;5072609;28;20098;-81
2021/11/12 13:34:27;;;;;;;33.05;25.33;;;;;;;;;;5056796;28;20097;-81
2021/11/12 13:36:53;;;;;;;34.35;25.92;;;;;;;;;;5056018;28;20043;-81
2021/11/12 13:39:20;;;;;;;36.63;26.23;;;;;;;;;;5056515;28;20066;-81
2021/11/12 13:41:47;;;;;;;34.10;26.02;;;;;;;;;;5056577;28;20474;-81
2021/11/12 13:44:15;;;;;;;34.78;25.25;;;;;;;;;;5044452;28;20079;-84
2021/11/12 13:46:42;;;;;;;37.92;27.25;;;;;;;;;;5036134;28;20049;-82
2021/11/12 13:49:09;;;;;;;36.92;25.73;;;;;;;;;;5035844;28;20059;-82
2021/11/12 13:51:35;;;;;;;38.10;26.88;;;;;;;;;;5020060;28;20092;-83
2021/11/12 13:54:03;;;;;;;39.20;27.88;;;;;;;;;;5019735;28;20063;-82
2021/11/12 13:56:33;;;;;;;37.15;27.30;;;;;;;;;;5035523;28;20040;-81
2021/11/12 13:59:03;;;;;;;37.20;27.52;;;;;;;;;;5035852;28;20049;-81
2021/11/12 14:01:31;;;;;;;37.85;27.38;;;;;;;;;;5035765;28;20056;-81
2021/11/12 14:03:57;;;;;;;38.42;27.55;;;;;;;;;;5018767;28;20056;-81
2021/11/12 14:06:33;;;;;;;38.83;28.85;;;;;;;;;;5036194;28;20135;-80
2021/11/12 14:09:02;;;;;;;38.15;27.40;;;;;;;;;;5022793;28;20146;-81
2021/11/12 14:11:30;;;;;;;42.03;28.85;;;;;;;;;;5038736;28;20048;-79
2021/11/12 14:14:00;;;;;;;41.42;29.05;;;;;;;;;;5038792;28;20123;-79
2021/11/12 14:16:32;;;;;;;43.33;28.55;;;;;;;;;;5055963;28;20044;-80
2021/11/12 14:19:15;;;;;;;40.20;28.23;;;;;;;;;;5056099;28;20048;-80
2021/11/12 14:32:46;;;;;;;;;;;;;;;;;;;;;
2021/11/12 14:35:12;;;;;;;43.38;30.00;;;;;;;;;;5055361;28;20044;-81
2021/11/12 14:40:49;;;;;;;54.05;34.03;;;;;;;;;;5054977;28;20098;-80
2021/11/12 14:46:00;;;;;;;50.55;33.15;;;;;;;;;;5055316;28;20063;-82
2021/11/12 14:48:32;;;;;;;51.00;33.13;;;;;;;;;;5055342;28;20053;-82
2021/11/12 14:51:12;;;;;;;48.92;32.22;;;;;;;;;;5055460;28;20056;-84
2021/11/12 14:53:41;;;;;;;48.72;32.00;;;;;;;;;;5054757;28;20051;-83
2021/11/12 14:56:23;;;;;;;46.53;30.60;;;;;;;;;;5072650;28;20050;-82
2021/11/12 14:59:03;;;;;;;49.40;32.03;;;;;;;;;;5055396;28;20048;-83
2021/11/12 15:01:32;;;;;;;48.20;31.95;;;;;;;;;;5055241;28;20048;-83
2021/11/12 15:03:58;;;;;;;50.45;32.63;;;;;;;;;;5038653;28;20365;-83
2021/11/12 15:06:25;;;;;;;50.33;31.90;;;;;;;;;;5038272;28;20076;-82
2021/11/12 15:11:22;;;;;;;49.65;33.50;;;;;;;;;;5058755;28;20102;-83
2021/11/12 15:13:49;;;;;;;50.35;31.75;;;;;;;;;;5042400;28;20091;-83
2021/11/12 15:16:26;;;;;;;51.35;32.63;;;;;;;;;;5058756;28;20040;-83
2021/11/12 15:18:56;;;;;;;52.67;33.35;;;;;;;;;;5058635;28;20048;-83
2021/11/12 15:22:10;;;;;;;50.35;32.95;;;;;;;;;;5059550;28;20111;-85
2021/11/12 15:26:55;;;;;;;52.63;33.05;;;;;;;;;;5058205;28;20084;-84
2021/11/12 15:29:27;;;;;;;51.35;33.67;;;;;;;;;;5041822;28;20087;-83
2021/11/12 15:32:04;;;;;;;54.80;33.67;;;;;;;;;;5042238;28;20492;-84
2021/11/12 15:34:36;;;;;;;51.85;32.47;;;;;;;;;;5058497;28;20056;-84
2021/11/12 15:37:07;;;;;;;54.25;33.75;;;;;;;;;;5058485;28;20049;-83
2021/11/12 15:45:07;;;;;;;54.33;34.08;;;;;;;;;;5057933;28;20459;-83
2021/11/12 15:47:36;;;;;;;56.08;34.42;;;;;;;;;;5058943;28;20116;-83
2021/11/12 15:52:39;;;;;;;54.00;32.95;;;;;;;;;;5075813;28;20052;-82
2021/11/12 16:08:44;;;;;;;61.33;36.75;;;;;;;;;;5058336;28;20377;-82
2021/11/12 16:13:54;;;;;;;58.83;35.65;;;;;;;;;;5058299;28;20047;-80
2021/11/12 16:19:00;;;;;;;58.50;35.80;;;;;;;;;;5058416;28;20473;-81
2021/11/12 16:26:44;;;;;;;56.42;35.30;;;;;;;;;;5057547;28;20405;-86
2021/11/12 16:31:52;;;;;;;54.80;34.38;;;;;;;;;;5057222;28;20056;-82
2021/11/12 16:34:21;;;;;;;58.28;34.75;;;;;;;;;;5057416;28;20528;-87
2021/11/12 16:36:56;;;;;;;51.55;33.17;;;;;;;;;;5057763;28;20045;-82
2021/11/12 16:39:38;;;;;;;54.05;33.25;;;;;;;;;;5040957;28;20050;-82
2021/11/12 16:54:50;;;;;;;55.83;34.55;;;;;;;;;;5056912;28;20481;-81
2021/11/12 17:00:05;;;;;;;56.15;34.20;;;;;;;;;;5056952;28;20385;-82
2021/11/12 17:02:39;;;;;;;52.00;33.17;;;;;;;;;;5056636;28;20056;-81
2021/11/12 17:07:59;;;;;;;53.08;33.85;;;;;;;;;;5056769;28;20139;-82
2021/11/12 17:44:46;;;;;;;52.33;33.10;;;;;;;;;;5023301;28;20059;-81
2021/11/12 17:48:44;;;;;;;46.88;30.52;;;;;;;;;;5056134;28;20128;-83
2021/11/12 18:02:14;;;;;;;49.83;31.10;;;;;;;;;;5056169;28;20052;-83
2021/11/12 18:10:12;;;;;;;45.88;29.92;;;;;;;;;;5056499;28;20074;-82
2021/11/12 18:15:55;;;;;;;46.35;31.25;;;;;;;;;;5056287;28;20139;-82
2021/11/12 18:21:42;;;;;;;46.47;30.63;;;;;;;;;;5056124;28;20052;-82
2021/11/12 21:48:12;;;;;;;36.77;25.30;;;;;;;;;;5056452;28;20056;-82
2021/11/12 21:50:38;;;;;;;38.65;26.65;;;;;;;;;;5056780;28;20044;-81
2021/11/12 21:53:05;;;;;;;40.65;27.08;;;;;;;;;;5039324;28;20044;-81
2021/11/12 21:55:32;;;;;;;41.60;27.33;;;;;;;;;;5055863;28;20094;-82
2021/11/12 21:57:58;;;;;;;40.72;26.27;;;;;;;;;;5073732;28;20474;-82
2021/11/12 22:00:25;;;;;;;38.67;25.25;;;;;;;;;;5039108;28;20063;-82
2021/11/12 22:02:51;;;;;;;40.67;26.42;;;;;;;;;;5039354;28;20070;-81
2021/11/12 22:05:17;;;;;;;39.33;26.85;;;;;;;;;;5039933;28;20060;-82
2021/11/12 22:07:43;;;;;;;42.03;27.38;;;;;;;;;;5039330;28;20036;-82
2021/11/12 22:10:09;;;;;;;40.78;26.30;;;;;;;;;;5056532;28;20049;-81
2021/11/12 22:12:35;;;;;;;40.88;25.80;;;;;;;;;;5073302;28;20060;-82
2021/11/12 22:15:02;;;;;;;39.45;25.58;;;;;;;;;;5039045;28;20382;-82
2021/11/12 22:17:28;;;;;;;40.67;26.08;;;;;;;;;;5055134;28;20040;-81
2021/11/12 22:19:54;;;;;;;38.75;25.45;;;;;;;;;;5038785;28;20489;-82
2021/11/12 22:22:20;;;;;;;37.75;24.88;;;;;;;;;;5039085;28;20131;-82
2021/11/12 22:24:46;;;;;;;41.05;26.38;;;;;;;;;;5039691;28;20048;-81
2021/11/12 22:27:12;;;;;;;39.65;26.33;;;;;;;;;;5055536;28;20044;-81
2021/11/12 22:29:38;;;;;;;39.42;26.25;;;;;;;;;;5055440;28;20041;-82
2021/11/12 22:32:04;;;;;;;37.63;25.58;;;;;;;;;;5073208;28;20050;-81
2021/11/12 22:34:31;;;;;;;40.33;25.40;;;;;;;;;;5038822;28;20048;-82
2021/11/12 22:36:57;;;;;;;43.03;25.55;;;;;;;;;;5039507;28;20400;-82
2021/11/12 22:39:23;;;;;;;37.53;25.63;;;;;;;;;;5055254;28;20051;-84
2021/11/12 22:41:50;;;;;;;39.58;25.42;;;;;;;;;;5055246;28;20044;-81
2021/11/12 22:44:17;;;;;;;40.83;24.95;;;;;;;;;;5055089;28;20052;-81
2021/11/12 22:46:43;;;;;;;37.85;25.40;;;;;;;;;;5038592;28;20068;-81
2021/11/12 22:49:10;;;;;;;41.58;25.30;;;;;;;;;;5055054;28;20044;-81
2021/11/12 22:51:36;;;;;;;37.28;24.08;;;;;;;;;;5054766;28;20508;-81
2021/11/12 22:54:03;;;;;;;40.50;25.20;;;;;;;;;;5038602;28;20059;-81
2021/11/12 22:56:29;;;;;;;38.30;25.42;;;;;;;;;;5055023;28;20047;-82
2021/11/12 22:58:55;;;;;;;41.30;25.80;;;;;;;;;;5055196;28;20045;-81
2021/11/12 23:01:27;;;;;;;41.00;26.52;;;;;;;;;;5038550;28;20083;-81
2021/11/12 23:03:53;;;;;;;38.60;24.92;;;;;;;;;;5055995;28;20056;-81
2021/11/12 23:06:19;;;;;;;40.47;25.92;;;;;;;;;;5055314;28;20052;-81
2021/11/12 23:08:45;;;;;;;39.70;25.48;;;;;;;;;;5055790;28;20049;-82
2021/11/12 23:11:13;;;;;;;42.60;25.05;;;;;;;;;;5054849;28;20044;-81
2021/11/12 23:13:40;;;;;;;38.85;24.83;;;;;;;;;;5038389;28;20052;-82
2021/11/12 23:16:06;;;;;;;40.67;25.52;;;;;;;;;;5072705;28;20454;-82
2021/11/12 23:18:33;;;;;;;38.97;25.75;;;;;;;;;;5054868;28;20049;-82
2021/11/12 23:21:00;;;;;;;40.95;25.70;;;;;;;;;;5055026;28;20445;-81
2021/11/12 23:23:26;;;;;;;42.53;26.75;;;;;;;;;;5055055;28;20366;-83
2021/11/12 23:25:53;;;;;;;42.92;26.95;;;;;;;;;;5054898;28;20045;-81
2021/11/12 23:28:19;;;;;;;36.88;24.33;;;;;;;;;;5055675;28;20049;-82
2021/11/12 23:30:45;;;;;;;38.20;25.40;;;;;;;;;;5057162;28;20127;-81
2021/11/12 23:33:12;;;;;;;36.97;24.75;;;;;;;;;;5059134;28;20396;-81
2021/11/12 23:35:38;;;;;;;41.30;24.95;;;;;;;;;;5041863;28;20477;-82
2021/11/12 23:38:04;;;;;;;42.50;25.75;;;;;;;;;;5041674;28;20049;-82
2021/11/12 23:40:30;;;;;;;40.88;25.13;;;;;;;;;;5041878;28;20048;-81
2021/11/12 23:42:56;;;;;;;36.53;25.50;;;;;;;;;;5058699;28;20052;-81
2021/11/12 23:45:22;;;;;;;36.58;24.50;;;;;;;;;;5058171;28;20400;-82
2021/11/12 23:47:49;;;;;;;36.65;25.17;;;;;;;;;;5041524;28;20569;-82
2021/11/12 23:50:17;;;;;;;36.35;24.88;;;;;;;;;;5058358;28;20055;-82
2021/11/12 23:52:43;;;;;;;41.33;25.33;;;;;;;;;;5058206;28;20048;-82
2021/11/12 23:55:11;;;;;;;37.88;25.48;;;;;;;;;;5059067;28;20094;-81
2021/11/12 23:57:37;;;;;;;37.47;24.67;;;;;;;;;;5057584;28;20087;-81
